sensor_id;sensor_type;location;lat;lon;timestamp;pressure;altitude;pressure_sealevel;temperature;humidity
5753;BME280;2901;42.140;24.760;2024-01-25T00:01:06;99816.53;;;4.70;95.45
5753;BME280;2901;42.140;24.760;2024-01-25T00:03:31;99827.06;;;4.82;95.35
5753;BME280;2901;42.140;24.760;2024-01-25T00:05:56;99800.63;;;4.86;93.69
5753;BME280;2901;42.140;24.760;2024-01-25T00:08:23;99803.97;;;4.82;93.70
5753;BME280;2901;42.140;24.760;2024-01-25T00:10:48;99778.31;;;4.82;93.73
5753;BME280;2901;42.140;24.760;2024-01-25T00:13:14;99782.63;;;4.85;93.39
5753;BME280;2901;42.140;24.760;2024-01-25T00:15:39;99767.88;;;4.75;93.48
5753;BME280;2901;42.140;24.760;2024-01-25T00:18:04;99770.25;;;4.64;93.91
5753;BME280;2901;42.140;24.760;2024-01-25T00:20:30;99782.19;;;4.63;93.81
5753;BME280;2901;42.140;24.760;2024-01-25T00:22:55;99785.47;;;4.56;94.41
5753;BME280;2901;42.140;24.760;2024-01-25T00:25:20;99771.56;;;4.47;94.59
5753;BME280;2901;42.140;24.760;2024-01-25T00:27:46;99766.41;;;4.45;94.43
5753;BME280;2901;42.140;24.760;2024-01-25T00:30:12;99769.56;;;4.34;94.69
5753;BME280;2901;42.140;24.760;2024-01-25T00:32:38;99777.94;;;4.27;95.59
5753;BME280;2901;42.140;24.760;2024-01-25T00:35:03;99770.13;;;4.22;96.05
5753;BME280;2901;42.140;24.760;2024-01-25T00:37:29;99772.22;;;4.01;96.88
5753;BME280;2901;42.140;24.760;2024-01-25T00:39:55;99773.44;;;3.82;98.19
5753;BME280;2901;42.140;24.760;2024-01-25T00:42:22;99772.91;;;3.95;97.76
5753;BME280;2901;42.140;24.760;2024-01-25T00:44:49;99760.31;;;4.03;96.95
5753;BME280;2901;42.140;24.760;2024-01-25T00:47:14;99746.75;;;4.08;96.58
5753;BME280;2901;42.140;24.760;2024-01-25T00:49:40;99738.38;;;4.15;96.09
5753;BME280;2901;42.140;24.760;2024-01-25T00:52:06;99753.13;;;4.26;94.58
5753;BME280;2901;42.140;24.760;2024-01-25T00:54:32;99741.19;;;4.25;94.36
5753;BME280;2901;42.140;24.760;2024-01-25T00:56:57;99730.50;;;4.44;91.67
5753;BME280;2901;42.140;24.760;2024-01-25T00:59:23;99732.63;;;4.64;90.01
5753;BME280;2901;42.140;24.760;2024-01-25T01:01:50;99741.81;;;4.94;88.55
5753;BME280;2901;42.140;24.760;2024-01-25T01:04:17;99736.44;;;5.27;86.63
5753;BME280;2901;42.140;24.760;2024-01-25T01:06:43;99715.38;;;5.46;86.92
5753;BME280;2901;42.140;24.760;2024-01-25T01:09:09;99704.59;;;5.66;86.08
5753;BME280;2901;42.140;24.760;2024-01-25T01:11:36;99708.28;;;5.82;86.03
5753;BME280;2901;42.140;24.760;2024-01-25T01:14:02;99694.91;;;6.01;84.73
5753;BME280;2901;42.140;24.760;2024-01-25T01:16:27;99685.75;;;6.20;83.41
5753;BME280;2901;42.140;24.760;2024-01-25T01:18:55;99676.72;;;6.51;82.74
5753;BME280;2901;42.140;24.760;2024-01-25T01:21:21;99678.84;;;6.85;80.81
5753;BME280;2901;42.140;24.760;2024-01-25T01:23:46;99667.16;;;7.16;79.78
5753;BME280;2901;42.140;24.760;2024-01-25T01:26:11;99663.13;;;7.44;78.14
5753;BME280;2901;42.140;24.760;2024-01-25T01:28:37;99655.59;;;7.66;76.66
5753;BME280;2901;42.140;24.760;2024-01-25T01:31:02;99677.19;;;7.82;75.22
5753;BME280;2901;42.140;24.760;2024-01-25T01:33:28;99654.81;;;7.79;74.18
5753;BME280;2901;42.140;24.760;2024-01-25T01:35:53;99665.22;;;7.90;73.11
5753;BME280;2901;42.140;24.760;2024-01-25T01:38:18;99662.66;;;7.90;72.48
5753;BME280;2901;42.140;24.760;2024-01-25T01:40:44;99672.97;;;7.95;71.39
5753;BME280;2901;42.140;24.760;2024-01-25T01:43:17;99680.81;;;8.10;69.45
5753;BME280;2901;42.140;24.760;2024-01-25T01:45:43;99664.53;;;8.18;67.23
5753;BME280;2901;42.140;24.760;2024-01-25T01:48:08;99670.66;;;8.29;66.25
5753;BME280;2901;42.140;24.760;2024-01-25T01:50:34;99668.84;;;8.24;66.03
5753;BME280;2901;42.140;24.760;2024-01-25T01:52:59;99673.22;;;8.29;65.51
5753;BME280;2901;42.140;24.760;2024-01-25T01:55:26;99665.53;;;8.36;65.73
5753;BME280;2901;42.140;24.760;2024-01-25T01:57:51;99676.72;;;8.47;64.33
5753;BME280;2901;42.140;24.760;2024-01-25T02:00:17;99663.03;;;8.52;64.18
5753;BME280;2901;42.140;24.760;2024-01-25T02:02:43;99655.25;;;8.46;64.86
5753;BME280;2901;42.140;24.760;2024-01-25T02:05:09;99648.38;;;8.48;65.10
5753;BME280;2901;42.140;24.760;2024-01-25T02:07:36;99650.06;;;8.45;65.47
5753;BME280;2901;42.140;24.760;2024-01-25T02:10:03;99647.47;;;8.43;64.97
5753;BME280;2901;42.140;24.760;2024-01-25T02:12:29;99644.88;;;8.43;64.79
5753;BME280;2901;42.140;24.760;2024-01-25T02:14:55;99650.06;;;8.45;65.80
5753;BME280;2901;42.140;24.760;2024-01-25T02:17:20;99625.06;;;8.28;66.44
5753;BME280;2901;42.140;24.760;2024-01-25T02:19:46;99650.06;;;8.43;66.18
5753;BME280;2901;42.140;24.760;2024-01-25T02:22:14;99640.59;;;8.44;66.78
5753;BME280;2901;42.140;24.760;2024-01-25T02:24:40;99619.97;;;8.42;66.93
5753;BME280;2901;42.140;24.760;2024-01-25T02:27:05;99626.88;;;8.57;66.89
5753;BME280;2901;42.140;24.760;2024-01-25T02:29:30;99622.63;;;8.65;66.68
5753;BME280;2901;42.140;24.760;2024-01-25T02:31:56;99619.19;;;8.73;66.68
5753;BME280;2901;42.140;24.760;2024-01-25T02:34:21;99603.72;;;8.82;66.94
5753;BME280;2901;42.140;24.760;2024-01-25T02:36:47;99599.44;;;8.86;67.69
5753;BME280;2901;42.140;24.760;2024-01-25T02:39:12;99609.81;;;9.01;68.06
5753;BME280;2901;42.140;24.760;2024-01-25T02:41:37;99606.38;;;9.14;68.14
5753;BME280;2901;42.140;24.760;2024-01-25T02:44:03;99596.03;;;9.23;67.89
5753;BME280;2901;42.140;24.760;2024-01-25T02:46:29;99596.91;;;9.34;68.38
5753;BME280;2901;42.140;24.760;2024-01-25T02:48:54;99597.75;;;9.43;69.13
5753;BME280;2901;42.140;24.760;2024-01-25T02:51:19;99585.69;;;9.46;69.17
5753;BME280;2901;42.140;24.760;2024-01-25T02:53:45;99597.75;;;9.58;69.50
5753;BME280;2901;42.140;24.760;2024-01-25T02:56:10;99602.94;;;9.64;68.91
5753;BME280;2901;42.140;24.760;2024-01-25T02:58:36;99586.53;;;9.77;68.75
5753;BME280;2901;42.140;24.760;2024-01-25T03:01:01;99573.59;;;9.83;68.84
5753;BME280;2901;42.140;24.760;2024-01-25T03:03:26;99572.72;;;9.85;68.57
5753;BME280;2901;42.140;24.760;2024-01-25T03:05:52;99577.03;;;9.91;68.56
5753;BME280;2901;42.140;24.760;2024-01-25T03:08:17;99573.53;;;10.01;68.40
5753;BME280;2901;42.140;24.760;2024-01-25T03:10:43;99581.25;;;10.09;69.04
5753;BME280;2901;42.140;24.760;2024-01-25T03:13:08;99568.31;;;10.13;68.79
5753;BME280;2901;42.140;24.760;2024-01-25T03:15:34;99556.22;;;10.21;69.02
5753;BME280;2901;42.140;24.760;2024-01-25T03:17:59;99576.91;;;10.27;69.75
5753;BME280;2901;42.140;24.760;2024-01-25T03:20:24;99568.28;;;10.28;70.24
5753;BME280;2901;42.140;24.760;2024-01-25T03:22:50;99577.72;;;10.41;70.03
5753;BME280;2901;42.140;24.760;2024-01-25T03:25:15;99566.44;;;10.52;70.01
5753;BME280;2901;42.140;24.760;2024-01-25T03:27:41;99556.94;;;10.57;70.47
5753;BME280;2901;42.140;24.760;2024-01-25T03:30:06;99544.84;;;10.59;70.47
5753;BME280;2901;42.140;24.760;2024-01-25T03:32:34;99554.38;;;10.51;71.05
5753;BME280;2901;42.140;24.760;2024-01-25T03:34:59;99563.03;;;10.45;71.34
5753;BME280;2901;42.140;24.760;2024-01-25T03:37:25;99551.06;;;10.26;71.30
5753;BME280;2901;42.140;24.760;2024-01-25T03:39:50;99558.81;;;10.30;71.58
5753;BME280;2901;42.140;24.760;2024-01-25T03:42:15;99547.63;;;10.13;71.62
5753;BME280;2901;42.140;24.760;2024-01-25T03:44:41;99564.84;;;10.25;71.47
5753;BME280;2901;42.140;24.760;2024-01-25T03:47:08;99569.22;;;10.17;69.71
5753;BME280;2901;42.140;24.760;2024-01-25T03:49:33;99577.81;;;10.19;68.92
5753;BME280;2901;42.140;24.760;2024-01-25T03:51:59;99590.72;;;10.11;67.73
5753;BME280;2901;42.140;24.760;2024-01-25T03:54:25;99576.06;;;10.12;67.30
5753;BME280;2901;42.140;24.760;2024-01-25T03:56:50;99585.56;;;10.23;68.03
5753;BME280;2901;42.140;24.760;2024-01-25T03:59:16;99592.47;;;10.18;67.09
5753;BME280;2901;42.140;24.760;2024-01-25T04:01:43;99597.69;;;10.03;68.20
5753;BME280;2901;42.140;24.760;2024-01-25T04:04:08;99595.94;;;10.07;68.63
5753;BME280;2901;42.140;24.760;2024-01-25T04:06:37;99594.19;;;10.21;68.80
5753;BME280;2901;42.140;24.760;2024-01-25T04:09:02;99585.53;;;10.28;68.35
5753;BME280;2901;42.140;24.760;2024-01-25T04:11:28;99569.97;;;10.43;68.44
5753;BME280;2901;42.140;24.760;2024-01-25T04:13:54;99558.59;;;10.65;67.30
5753;BME280;2901;42.140;24.760;2024-01-25T04:16:19;99556.81;;;10.79;66.74
5753;BME280;2901;42.140;24.760;2024-01-25T04:18:44;99554.97;;;10.90;66.00
5753;BME280;2901;42.140;24.760;2024-01-25T04:21:10;99561.06;;;10.85;66.43
5753;BME280;2901;42.140;24.760;2024-01-25T04:23:35;99567.97;;;10.89;66.34
5753;BME280;2901;42.140;24.760;2024-01-25T04:26:00;99580.06;;;10.85;66.44
5753;BME280;2901;42.140;24.760;2024-01-25T04:28:26;99584.41;;;10.82;66.52
5753;BME280;2901;42.140;24.760;2024-01-25T04:30:51;99603.41;;;10.78;65.98
5753;BME280;2901;42.140;24.760;2024-01-25T04:33:17;99612.06;;;10.80;66.62
5753;BME280;2901;42.140;24.760;2024-01-25T04:35:43;99615.47;;;10.86;66.21
5753;BME280;2901;42.140;24.760;2024-01-25T04:38:08;99632.75;;;10.86;66.50
5753;BME280;2901;42.140;24.760;2024-01-25T04:40:33;99609.44;;;10.86;67.68
5753;BME280;2901;42.140;24.760;2024-01-25T04:42:59;99599.94;;;10.85;67.91
5753;BME280;2901;42.140;24.760;2024-01-25T04:45:24;99604.25;;;10.86;68.32
5753;BME280;2901;42.140;24.760;2024-01-25T04:47:50;99581.81;;;10.82;68.47
5753;BME280;2901;42.140;24.760;2024-01-25T04:50:15;99593.94;;;10.80;68.73
5753;BME280;2901;42.140;24.760;2024-01-25T04:52:40;99593.97;;;10.72;68.71
5753;BME280;2901;42.140;24.760;2024-01-25T04:55:06;99596.63;;;10.63;70.00
5753;BME280;2901;42.140;24.760;2024-01-25T04:57:31;99588.91;;;10.53;69.80
5753;BME280;2901;42.140;24.760;2024-01-25T04:59:56;99603.53;;;10.58;70.95
5753;BME280;2901;42.140;24.760;2024-01-25T05:02:22;99602.69;;;10.52;70.89
5753;BME280;2901;42.140;24.760;2024-01-25T05:04:47;99596.66;;;10.53;71.24
5753;BME280;2901;42.140;24.760;2024-01-25T05:07:13;99598.38;;;10.48;72.00
5753;BME280;2901;42.140;24.760;2024-01-25T05:09:38;99594.09;;;10.47;72.02
5753;BME280;2901;42.140;24.760;2024-01-25T05:12:04;99610.47;;;10.49;71.52
5753;BME280;2901;42.140;24.760;2024-01-25T05:14:29;99609.56;;;10.57;72.18
5753;BME280;2901;42.140;24.760;2024-01-25T05:16:55;99586.25;;;10.57;72.44
5753;BME280;2901;42.140;24.760;2024-01-25T05:19:20;99580.25;;;10.54;72.99
5753;BME280;2901;42.140;24.760;2024-01-25T05:21:46;99572.50;;;10.54;73.11
5753;BME280;2901;42.140;24.760;2024-01-25T05:24:11;99587.13;;;10.58;73.21
5753;BME280;2901;42.140;24.760;2024-01-25T05:26:37;99607.81;;;10.62;73.25
5753;BME280;2901;42.140;24.760;2024-01-25T05:29:02;99600.03;;;10.70;73.09
5753;BME280;2901;42.140;24.760;2024-01-25T05:31:27;99611.22;;;10.75;73.84
5753;BME280;2901;42.140;24.760;2024-01-25T05:33:53;99609.47;;;10.77;73.16
5753;BME280;2901;42.140;24.760;2024-01-25T05:36:18;99593.91;;;10.77;73.83
5753;BME280;2901;42.140;24.760;2024-01-25T05:38:45;99580.97;;;10.77;73.25
5753;BME280;2901;42.140;24.760;2024-01-25T05:41:10;99607.75;;;10.76;73.41
5753;BME280;2901;42.140;24.760;2024-01-25T05:43:37;99608.56;;;10.85;73.86
5753;BME280;2901;42.140;24.760;2024-01-25T05:46:02;99594.72;;;10.88;73.54
5753;BME280;2901;42.140;24.760;2024-01-25T05:48:28;99603.34;;;10.90;73.46
5753;BME280;2901;42.140;24.760;2024-01-25T05:50:53;99593.88;;;10.87;73.96
5753;BME280;2901;42.140;24.760;2024-01-25T05:53:18;99613.69;;;10.94;73.75
5753;BME280;2901;42.140;24.760;2024-01-25T05:55:45;99615.41;;;10.94;73.77
5753;BME280;2901;42.140;24.760;2024-01-25T05:58:10;99622.31;;;10.95;73.78
5753;BME280;2901;42.140;24.760;2024-01-25T06:00:35;99625.72;;;11.00;73.59
5753;BME280;2901;42.140;24.760;2024-01-25T06:03:01;99630.91;;;11.03;74.10
5753;BME280;2901;42.140;24.760;2024-01-25T06:05:26;99628.34;;;10.97;74.60
5753;BME280;2901;42.140;24.760;2024-01-25T06:07:52;99627.53;;;10.89;74.64
5753;BME280;2901;42.140;24.760;2024-01-25T06:10:17;99643.06;;;10.90;75.17
5753;BME280;2901;42.140;24.760;2024-01-25T06:12:43;99650.88;;;10.81;75.25
5753;BME280;2901;42.140;24.760;2024-01-25T06:15:08;99656.09;;;10.80;75.16
5753;BME280;2901;42.140;24.760;2024-01-25T06:17:34;99657.00;;;10.70;76.12
5753;BME280;2901;42.140;24.760;2024-01-25T06:19:59;99672.56;;;10.67;76.02
5753;BME280;2901;42.140;24.760;2024-01-25T06:22:25;99688.09;;;10.62;77.08
5753;BME280;2901;42.140;24.760;2024-01-25T06:24:50;99693.31;;;10.53;77.55
5753;BME280;2901;42.140;24.760;2024-01-25T06:27:16;99676.97;;;10.44;78.08
5753;BME280;2901;42.140;24.760;2024-01-25T06:29:41;99680.44;;;10.33;78.47
5753;BME280;2901;42.140;24.760;2024-01-25T06:32:06;99681.28;;;10.32;78.97
5753;BME280;2901;42.140;24.760;2024-01-25T06:34:32;99675.28;;;10.21;79.63
5753;BME280;2901;42.140;24.760;2024-01-25T06:36:57;99674.41;;;10.21;79.71
5753;BME280;2901;42.140;24.760;2024-01-25T06:39:22;99659.75;;;10.20;80.21
5753;BME280;2901;42.140;24.760;2024-01-25T06:41:48;99677.88;;;10.15;78.98
5753;BME280;2901;42.140;24.760;2024-01-25T06:44:13;99664.06;;;10.22;78.29
5753;BME280;2901;42.140;24.760;2024-01-25T06:46:39;99678.72;;;10.26;78.05
5753;BME280;2901;42.140;24.760;2024-01-25T06:49:04;99680.44;;;10.33;76.13
5753;BME280;2901;42.140;24.760;2024-01-25T06:51:29;99683.81;;;10.48;75.00
5753;BME280;2901;42.140;24.760;2024-01-25T06:53:55;99667.41;;;10.58;72.93
5753;BME280;2901;42.140;24.760;2024-01-25T06:56:20;99664.78;;;10.67;72.31
5753;BME280;2901;42.140;24.760;2024-01-25T06:58:46;99676.81;;;10.74;70.63
5753;BME280;2901;42.140;24.760;2024-01-25T07:01:11;99677.66;;;10.77;69.89
5753;BME280;2901;42.140;24.760;2024-01-25T07:03:37;99675.94;;;10.78;69.62
5753;BME280;2901;42.140;24.760;2024-01-25T07:06:03;99678.47;;;10.87;69.17
5753;BME280;2901;42.140;24.760;2024-01-25T07:08:29;99669.00;;;10.86;69.41
5753;BME280;2901;42.140;24.760;2024-01-25T07:10:54;99676.81;;;10.83;70.19
5753;BME280;2901;42.140;24.760;2024-01-25T07:13:21;99657.81;;;10.78;70.86
5753;BME280;2901;42.140;24.760;2024-01-25T07:15:47;99664.72;;;10.74;70.33
5753;BME280;2901;42.140;24.760;2024-01-25T07:18:13;99674.31;;;10.63;71.19
5753;BME280;2901;42.140;24.760;2024-01-25T07:20:38;99672.53;;;10.64;71.18
5753;BME280;2901;42.140;24.760;2024-01-25T07:23:03;99679.44;;;10.69;71.93
5753;BME280;2901;42.140;24.760;2024-01-25T07:25:29;99687.25;;;10.59;72.90
5753;BME280;2901;42.140;24.760;2024-01-25T07:27:54;99676.06;;;10.54;73.05
5753;BME280;2901;42.140;24.760;2024-01-25T07:30:20;99688.09;;;10.58;72.68
5753;BME280;2901;42.140;24.760;2024-01-25T07:32:45;99686.34;;;10.64;71.94
5753;BME280;2901;42.140;24.760;2024-01-25T07:35:11;99690.66;;;10.76;72.00
5753;BME280;2901;42.140;24.760;2024-01-25T07:37:38;99686.25;;;10.90;70.91
5753;BME280;2901;42.140;24.760;2024-01-25T07:40:03;99701.75;;;10.98;69.85
5753;BME280;2901;42.140;24.760;2024-01-25T07:42:29;99691.41;;;10.98;69.21
5753;BME280;2901;42.140;24.760;2024-01-25T07:44:54;99685.34;;;10.97;68.93
5753;BME280;2901;42.140;24.760;2024-01-25T07:47:20;99691.41;;;10.98;67.76
5753;BME280;2901;42.140;24.760;2024-01-25T07:49:45;99710.38;;;11.04;66.84
5753;BME280;2901;42.140;24.760;2024-01-25T07:52:11;99693.94;;;11.08;65.73
5753;BME280;2901;42.140;24.760;2024-01-25T07:54:36;99703.34;;;11.20;65.88
5753;BME280;2901;42.140;24.760;2024-01-25T07:57:02;99692.13;;;11.22;65.96
5753;BME280;2901;42.140;24.760;2024-01-25T07:59:27;99700.69;;;11.33;65.46
5753;BME280;2901;42.140;24.760;2024-01-25T08:01:52;99710.13;;;11.43;66.11
5753;BME280;2901;42.140;24.760;2024-01-25T08:04:18;99685.03;;;11.49;65.01
5753;BME280;2901;42.140;24.760;2024-01-25T08:06:43;99677.22;;;11.50;65.10
5753;BME280;2901;42.140;24.760;2024-01-25T08:09:09;99697.84;;;11.67;65.00
5753;BME280;2901;42.140;24.760;2024-01-25T08:11:34;99690.94;;;11.69;64.07
5753;BME280;2901;42.140;24.760;2024-01-25T08:14:00;99690.03;;;11.76;64.44
5753;BME280;2901;42.140;24.760;2024-01-25T08:16:25;99690.91;;;11.73;64.20
5753;BME280;2901;42.140;24.760;2024-01-25T08:18:51;99686.56;;;11.78;63.17
5753;BME280;2901;42.140;24.760;2024-01-25T08:21:17;99681.34;;;11.80;64.01
5753;BME280;2901;42.140;24.760;2024-01-25T08:23:42;99683.06;;;11.85;63.67
5753;BME280;2901;42.140;24.760;2024-01-25T08:26:07;99677.78;;;11.93;63.38
5753;BME280;2901;42.140;24.760;2024-01-25T08:28:41;99680.34;;;11.96;63.11
5753;BME280;2901;42.140;24.760;2024-01-25T08:31:08;99670.75;;;12.03;63.40
5753;BME280;2901;42.140;24.760;2024-01-25T08:33:33;99669.91;;;12.05;63.80
5753;BME280;2901;42.140;24.760;2024-01-25T08:35:59;99669.88;;;12.07;63.68
5753;BME280;2901;42.140;24.760;2024-01-25T08:38:24;99650.72;;;12.17;62.62
5753;BME280;2901;42.140;24.760;2024-01-25T08:40:50;99651.69;;;12.08;62.16
5753;BME280;2901;42.140;24.760;2024-01-25T08:43:15;99619.81;;;11.92;63.14
5753;BME280;2901;42.140;24.760;2024-01-25T08:45:40;99643.03;;;12.06;62.01
5753;BME280;2901;42.140;24.760;2024-01-25T08:48:06;99645.66;;;12.06;62.84
5753;BME280;2901;42.140;24.760;2024-01-25T08:50:34;99645.72;;;12.02;63.30
5753;BME280;2901;42.140;24.760;2024-01-25T08:52:59;99636.97;;;12.12;63.32
5753;BME280;2901;42.140;24.760;2024-01-25T08:55:25;99643.00;;;12.11;63.15
5753;BME280;2901;42.140;24.760;2024-01-25T08:57:50;99629.06;;;12.19;62.89
5753;BME280;2901;42.140;24.760;2024-01-25T09:00:16;99656.00;;;12.11;62.39
5753;BME280;2901;42.140;24.760;2024-01-25T09:02:41;99616.16;;;12.15;62.59
5753;BME280;2901;42.140;24.760;2024-01-25T09:05:08;99655.94;;;12.15;61.83
5753;BME280;2901;42.140;24.760;2024-01-25T09:07:37;99611.94;;;12.03;61.07
5753;BME280;2901;42.140;24.760;2024-01-25T09:10:03;99643.00;;;12.09;61.18
5753;BME280;2901;42.140;24.760;2024-01-25T09:12:30;99666.34;;;12.12;60.29
5753;BME280;2901;42.140;24.760;2024-01-25T09:14:55;99651.53;;;12.23;59.47
5753;BME280;2901;42.140;24.760;2024-01-25T09:17:20;99649.69;;;12.34;59.34
5753;BME280;2901;42.140;24.760;2024-01-25T09:19:49;99647.94;;;12.33;59.54
5753;BME280;2901;42.140;24.760;2024-01-25T09:22:15;99662.72;;;12.28;60.25
5753;BME280;2901;42.140;24.760;2024-01-25T09:24:42;99668.84;;;12.24;60.68
5753;BME280;2901;42.140;24.760;2024-01-25T09:27:07;99658.47;;;12.21;59.80
5753;BME280;2901;42.140;24.760;2024-01-25T09:29:33;99660.25;;;12.16;59.83
5753;BME280;2901;42.140;24.760;2024-01-25T09:31:58;99664.69;;;12.08;60.06
5753;BME280;2901;42.140;24.760;2024-01-25T09:34:23;99668.09;;;12.10;60.59
5753;BME280;2901;42.140;24.760;2024-01-25T09:36:49;99673.22;;;12.18;60.92
5753;BME280;2901;42.140;24.760;2024-01-25T09:39:14;99680.88;;;12.31;59.93
5753;BME280;2901;42.140;24.760;2024-01-25T09:41:40;99675.69;;;12.28;59.63
5753;BME280;2901;42.140;24.760;2024-01-25T09:44:10;99673.06;;;12.33;58.49
5753;BME280;2901;42.140;24.760;2024-01-25T09:46:37;99672.22;;;12.29;58.54
5753;BME280;2901;42.140;24.760;2024-01-25T09:49:02;99677.28;;;12.41;58.21
5753;BME280;2901;42.140;24.760;2024-01-25T09:51:36;99701.63;;;12.34;58.76
5753;BME280;2901;42.140;24.760;2024-01-25T09:54:03;99700.75;;;12.34;58.69
5753;BME280;2901;42.140;24.760;2024-01-25T09:56:31;99677.41;;;12.29;58.56
5753;BME280;2901;42.140;24.760;2024-01-25T09:58:57;99665.31;;;12.28;58.74
5753;BME280;2901;42.140;24.760;2024-01-25T10:01:23;99678.25;;;12.34;58.50
5753;BME280;2901;42.140;24.760;2024-01-25T10:03:49;99705.25;;;12.17;58.81
5753;BME280;2901;42.140;24.760;2024-01-25T10:06:15;99721.69;;;12.17;58.91
5753;BME280;2901;42.140;24.760;2024-01-25T10:08:41;99690.53;;;12.17;58.35
5753;BME280;2901;42.140;24.760;2024-01-25T10:11:06;99672.38;;;12.17;57.62
5753;BME280;2901;42.140;24.760;2024-01-25T10:13:40;99667.19;;;12.14;58.49
5753;BME280;2901;42.140;24.760;2024-01-25T10:16:07;99646.53;;;12.05;58.30
5753;BME280;2901;42.140;24.760;2024-01-25T10:18:32;99674.94;;;12.20;58.10
5753;BME280;2901;42.140;24.760;2024-01-25T10:20:58;99661.91;;;12.23;57.94
5753;BME280;2901;42.140;24.760;2024-01-25T10:23:25;99658.31;;;12.36;56.80
5753;BME280;2901;42.140;24.760;2024-01-25T10:25:51;99658.31;;;12.36;57.11
5753;BME280;2901;42.140;24.760;2024-01-25T10:28:16;99641.06;;;12.29;57.45
5753;BME280;2901;42.140;24.760;2024-01-25T10:30:42;99669.66;;;12.26;57.57
5753;BME280;2901;42.140;24.760;2024-01-25T10:33:09;99641.09;;;12.26;57.51
5753;BME280;2901;42.140;24.760;2024-01-25T10:35:36;99649.84;;;12.19;57.46
5753;BME280;2901;42.140;24.760;2024-01-25T10:38:02;99641.97;;;12.25;57.61
5753;BME280;2901;42.140;24.760;2024-01-25T10:40:28;99647.25;;;12.19;57.74
5753;BME280;2901;42.140;24.760;2024-01-25T10:42:54;99635.88;;;12.29;57.72
5753;BME280;2901;42.140;24.760;2024-01-25T10:45:20;99725.81;;;12.36;56.58
5753;BME280;2901;42.140;24.760;2024-01-25T10:47:48;99640.91;;;12.44;55.35
5753;BME280;2901;42.140;24.760;2024-01-25T10:50:13;99637.38;;;12.50;55.66
5753;BME280;2901;42.140;24.760;2024-01-25T10:52:40;99631.31;;;12.51;55.80
5753;BME280;2901;42.140;24.760;2024-01-25T10:55:07;99622.78;;;12.40;55.12
5753;BME280;2901;42.140;24.760;2024-01-25T10:57:45;99619.31;;;12.39;55.04
5753;BME280;2901;42.140;24.760;2024-01-25T11:00:12;99628.91;;;12.34;55.68
5753;BME280;2901;42.140;24.760;2024-01-25T11:02:39;99624.66;;;12.26;54.15
5753;BME280;2901;42.140;24.760;2024-01-25T11:05:10;99610.03;;;12.20;53.93
5753;BME280;2901;42.140;24.760;2024-01-25T11:07:48;99649.78;;;12.22;54.45
5753;BME280;2901;42.140;24.760;2024-01-25T11:10:18;99647.28;;;12.18;54.80
5753;BME280;2901;42.140;24.760;2024-01-25T11:13:00;99632.50;;;12.23;54.03
5753;BME280;2901;42.140;24.760;2024-01-25T11:15:34;99635.00;;;12.30;54.15
5753;BME280;2901;42.140;24.760;2024-01-25T11:18:01;99619.38;;;12.33;54.51
5753;BME280;2901;42.140;24.760;2024-01-25T11:20:28;99614.16;;;12.36;54.31
5753;BME280;2901;42.140;24.760;2024-01-25T11:23:04;99634.16;;;12.28;53.73
5753;BME280;2901;42.140;24.760;2024-01-25T11:25:34;99622.03;;;12.30;54.71
5753;BME280;2901;42.140;24.760;2024-01-25T11:28:02;99627.22;;;12.30;54.93
5753;BME280;2901;42.140;24.760;2024-01-25T11:30:29;99610.81;;;12.27;54.29
5753;BME280;2901;42.140;24.760;2024-01-25T11:32:55;99613.50;;;12.19;54.96
5753;BME280;2901;42.140;24.760;2024-01-25T11:35:21;99648.16;;;12.14;54.90
5753;BME280;2901;42.140;24.760;2024-01-25T11:37:47;99623.94;;;12.13;56.28
5753;BME280;2901;42.140;24.760;2024-01-25T11:40:14;99626.56;;;12.09;55.97
5753;BME280;2901;42.140;24.760;2024-01-25T11:42:41;99624.81;;;12.14;56.94
5753;BME280;2901;42.140;24.760;2024-01-25T11:45:09;99626.47;;;12.21;56.45
5753;BME280;2901;42.140;24.760;2024-01-25T11:47:35;99625.56;;;12.25;56.63
5753;BME280;2901;42.140;24.760;2024-01-25T11:50:01;99626.31;;;12.34;57.13
5753;BME280;2901;42.140;24.760;2024-01-25T11:52:27;99606.41;;;12.32;56.75
5753;BME280;2901;42.140;24.760;2024-01-25T11:54:52;99598.28;;;12.59;56.72
5753;BME280;2901;42.140;24.760;2024-01-25T11:57:18;99607.72;;;12.65;56.68
5753;BME280;2901;42.140;24.760;2024-01-25T11:59:44;99608.38;;;12.82;55.45
5753;BME280;2901;42.140;24.760;2024-01-25T12:02:13;99604.88;;;12.84;56.31
5753;BME280;2901;42.140;24.760;2024-01-25T12:04:39;99584.78;;;12.97;55.55
5753;BME280;2901;42.140;24.760;2024-01-25T12:07:04;99586.53;;;12.95;55.49
5753;BME280;2901;42.140;24.760;2024-01-25T12:09:30;99576.97;;;12.97;55.50
5753;BME280;2901;42.140;24.760;2024-01-25T12:11:55;99582.25;;;12.91;56.18
5753;BME280;2901;42.140;24.760;2024-01-25T12:14:23;99582.34;;;12.85;54.99
5753;BME280;2901;42.140;24.760;2024-01-25T12:16:49;99573.81;;;12.75;54.90
5753;BME280;2901;42.140;24.760;2024-01-25T12:19:15;99589.44;;;12.74;54.74
5753;BME280;2901;42.140;24.760;2024-01-25T12:21:43;99598.94;;;12.75;54.58
5753;BME280;2901;42.140;24.760;2024-01-25T12:24:09;99599.88;;;12.71;54.63
5753;BME280;2901;42.140;24.760;2024-01-25T12:26:36;99579.97;;;12.70;55.06
5753;BME280;2901;42.140;24.760;2024-01-25T12:29:02;99645.91;;;12.60;53.30
5753;BME280;2901;42.140;24.760;2024-01-25T12:31:28;99561.16;;;12.53;53.67
5753;BME280;2901;42.140;24.760;2024-01-25T12:33:53;99589.03;;;12.38;54.62
5753;BME280;2901;42.140;24.760;2024-01-25T12:36:19;99583.81;;;12.40;54.12
5753;BME280;2901;42.140;24.760;2024-01-25T12:38:44;99580.28;;;12.45;53.82
5753;BME280;2901;42.140;24.760;2024-01-25T12:41:10;99576.06;;;12.37;54.26
5753;BME280;2901;42.140;24.760;2024-01-25T12:43:35;99565.59;;;12.44;55.18
5753;BME280;2901;42.140;24.760;2024-01-25T12:46:01;99603.78;;;12.38;55.12
5753;BME280;2901;42.140;24.760;2024-01-25T12:48:26;99558.84;;;12.31;55.28
5753;BME280;2901;42.140;24.760;2024-01-25T12:50:52;99579.50;;;12.40;55.76
5753;BME280;2901;42.140;24.760;2024-01-25T12:53:17;99572.66;;;12.32;55.89
5753;BME280;2901;42.140;24.760;2024-01-25T12:55:43;99578.84;;;12.23;55.73
5753;BME280;2901;42.140;24.760;2024-01-25T12:58:08;99575.41;;;12.21;55.57
5753;BME280;2901;42.140;24.760;2024-01-25T13:00:33;99569.41;;;12.18;55.69
5753;BME280;2901;42.140;24.760;2024-01-25T13:02:59;99583.25;;;12.17;54.80
5753;BME280;2901;42.140;24.760;2024-01-25T13:05:27;99578.13;;;12.11;53.68